Time;durP1;ratioP1;P1;durP2;ratioP2;P2;SDS_P1;SDS_P2;PMS_P1;PMS_P2;Temp;Humidity;BMP_temperature;BMP_pressure;BME280_temperature;BME280_humidity;BME280_pressure;Samples;Min_cycle;Max_cycle;Signal;HPM_P1;HPM_P2
2021/03/03 00:01:27;;;;;;;20.17;9.30;;;-1.90;99.90;;;;;;5072028;28;20095;-82
2021/03/03 00:03:54;;;;;;;17.33;7.65;;;-1.90;99.90;;;;;;5072324;28;20060;-83
2021/03/03 00:06:20;;;;;;;18.35;7.47;;;-1.90;99.90;;;;;;5071853;28;20110;-82
2021/03/03 00:08:46;;;;;;;13.00;7.80;;;-1.90;99.90;;;;;;5072176;28;20137;-83
2021/03/03 00:11:13;;;;;;;12.48;6.88;;;-1.90;99.90;;;;;;5073477;28;20136;-83
2021/03/03 00:13:39;;;;;;;12.57;7.20;;;-2.00;99.90;;;;;;5075135;28;20083;-83
2021/03/03 00:16:05;;;;;;;13.35;7.50;;;-2.00;99.90;;;;;;5077351;28;20181;-83
2021/03/03 00:18:32;;;;;;;12.00;7.05;;;-2.10;99.90;;;;;;5077576;28;20044;-83
2021/03/03 00:20:59;;;;;;;16.95;8.10;;;-2.10;99.90;;;;;;5075949;28;20083;-83
2021/03/03 00:23:26;;;;;;;14.10;7.28;;;-2.20;99.90;;;;;;5075849;28;20048;-82
2021/03/03 00:25:52;;;;;;;19.02;7.80;;;-2.20;99.90;;;;;;5076196;28;20080;-83
2021/03/03 00:28:18;;;;;;;15.00;7.63;;;-2.20;99.90;;;;;;5077310;28;20568;-83
2021/03/03 00:30:44;;;;;;;12.32;7.28;;;-2.20;99.90;;;;;;5077733;28;20098;-83
2021/03/03 00:33:11;;;;;;;13.93;7.55;;;-2.20;99.90;;;;;;5077386;28;20512;-83
2021/03/03 00:35:38;;;;;;;15.77;8.65;;;-2.20;99.90;;;;;;5075732;28;20498;-82
2021/03/03 00:38:04;;;;;;;14.15;7.68;;;-2.20;99.90;;;;;;5076185;28;20052;-83
2021/03/03 00:40:30;;;;;;;14.90;8.32;;;-2.20;99.90;;;;;;5076520;28;20049;-83
2021/03/03 00:42:56;;;;;;;18.30;7.75;;;-2.10;99.90;;;;;;5078081;28;20049;-83
2021/03/03 00:45:23;;;;;;;14.10;7.82;;;-2.20;99.90;;;;;;5076695;28;20072;-83
2021/03/03 00:47:49;;;;;;;15.93;7.95;;;-2.20;99.90;;;;;;5078471;28;20053;-83
2021/03/03 00:50:16;;;;;;;14.38;7.65;;;-2.30;99.90;;;;;;5076664;28;20409;-83
2021/03/03 00:52:42;;;;;;;13.70;6.95;;;-2.30;99.90;;;;;;5077155;28;20064;-83
2021/03/03 00:55:09;;;;;;;20.80;9.48;;;-2.30;99.90;;;;;;5076861;28;20052;-83
2021/03/03 00:57:35;;;;;;;16.23;8.00;;;-2.00;99.90;;;;;;5077018;28;20068;-83
2021/03/03 01:00:03;;;;;;;16.33;8.43;;;-2.10;99.90;;;;;;5076372;28;20502;-83
2021/03/03 01:02:29;;;;;;;16.33;8.32;;;-2.10;99.90;;;;;;5077167;28;20048;-83
2021/03/03 01:04:55;;;;;;;16.95;8.10;;;-2.10;99.90;;;;;;5077989;28;20080;-83
2021/03/03 01:07:22;;;;;;;17.17;8.30;;;-2.20;99.90;;;;;;5077037;28;20056;-83
2021/03/03 01:09:48;;;;;;;12.95;7.30;;;-2.30;99.90;;;;;;5076506;28;20084;-83
2021/03/03 01:12:14;;;;;;;14.38;7.50;;;-2.30;99.90;;;;;;5077193;28;20088;-83
2021/03/03 01:14:40;;;;;;;15.55;7.13;;;-2.30;99.90;;;;;;5076546;28;20566;-83
2021/03/03 01:17:07;;;;;;;15.77;7.70;;;-2.40;99.90;;;;;;5077073;28;20052;-83
2021/03/03 01:19:33;;;;;;;13.55;7.93;;;-2.30;99.90;;;;;;5077470;28;20488;-83
2021/03/03 01:21:59;;;;;;;19.50;8.30;;;-2.30;99.90;;;;;;5077974;28;20079;-83
2021/03/03 01:24:25;;;;;;;12.68;6.88;;;-2.30;99.90;;;;;;5078104;28;20469;-83
2021/03/03 01:26:52;;;;;;;11.63;6.90;;;-2.30;99.90;;;;;;5077582;28;20051;-83
2021/03/03 01:29:18;;;;;;;11.52;7.00;;;-2.40;99.90;;;;;;5078155;28;20480;-83
2021/03/03 01:31:44;;;;;;;11.50;7.45;;;-2.40;99.90;;;;;;5080552;28;20094;-82
2021/03/03 01:34:11;;;;;;;15.00;7.63;;;-2.40;99.90;;;;;;5078497;28;20516;-83
2021/03/03 01:36:37;;;;;;;11.55;7.32;;;-2.40;99.90;;;;;;5080762;28;20079;-83
2021/03/03 01:39:04;;;;;;;14.25;7.47;;;-2.40;99.90;;;;;;5078427;28;20076;-83
2021/03/03 01:41:30;;;;;;;12.43;7.25;;;-2.50;99.90;;;;;;5079632;28;20094;-83
2021/03/03 01:43:56;;;;;;;14.93;8.07;;;-2.40;99.90;;;;;;5079501;28;20475;-83
2021/03/03 01:46:23;;;;;;;11.45;6.80;;;-2.50;99.90;;;;;;5079777;28;20055;-83
2021/03/03 01:48:50;;;;;;;13.25;7.28;;;-2.40;99.90;;;;;;5080407;28;20088;-83
2021/03/03 01:51:17;;;;;;;15.82;7.63;;;-2.60;99.90;;;;;;5080784;28;20490;-83
2021/03/03 01:53:44;;;;;;;12.70;6.75;;;-2.50;99.90;;;;;;5080985;28;20049;-83
2021/03/03 01:56:11;;;;;;;13.27;6.75;;;-2.60;99.90;;;;;;5081185;28;20056;-83
2021/03/03 01:58:37;;;;;;;14.98;7.60;;;-2.70;99.90;;;;;;5081483;28;20040;-83
2021/03/03 02:01:17;;;;;;;11.02;6.78;;;-2.70;99.90;;;;;;5082843;28;20051;-83
2021/03/03 02:03:43;;;;;;;15.48;6.82;;;-2.60;99.90;;;;;;5082255;28;20049;-83
2021/03/03 02:06:44;;;;;;;15.20;7.82;;;-2.70;99.90;;;;;;5083084;28;20049;-83
2021/03/03 02:09:28;;;;;;;12.70;7.03;;;-2.60;99.90;;;;;;5082131;28;20049;-83
2021/03/03 02:12:07;;;;;;;17.83;8.48;;;-2.60;99.90;;;;;;5084927;28;20045;-82
2021/03/03 02:14:34;;;;;;;14.75;7.60;;;-2.60;99.90;;;;;;5085459;28;20406;-83
2021/03/03 02:17:02;;;;;;;13.88;7.00;;;-2.60;99.90;;;;;;5085012;28;20470;-83
2021/03/03 02:19:33;;;;;;;10.68;6.50;;;-2.70;99.90;;;;;;5084660;28;20048;-83
2021/03/03 02:22:27;;;;;;;14.43;7.35;;;-2.70;99.90;;;;;;5086372;28;20075;-83
2021/03/03 02:25:06;;;;;;;11.40;6.07;;;-2.70;99.90;;;;;;5085439;28;20055;-83
2021/03/03 02:27:32;;;;;;;16.27;7.22;;;-2.70;99.90;;;;;;5085821;28;20053;-83
2021/03/03 02:30:04;;;;;;;11.55;7.13;;;-2.80;99.90;;;;;;5087242;28;20048;-83
2021/03/03 02:32:30;;;;;;;15.18;7.47;;;-2.90;99.90;;;;;;5086371;28;20125;-83
2021/03/03 02:34:58;;;;;;;18.15;7.35;;;-2.90;99.90;;;;;;5087682;28;20053;-83
2021/03/03 02:37:25;;;;;;;13.98;8.30;;;-2.90;99.90;;;;;;5087024;28;20044;-84
2021/03/03 02:39:52;;;;;;;12.43;7.32;;;-2.90;99.90;;;;;;5092544;28;20036;-81
2021/03/03 02:42:19;;;;;;;17.10;7.65;;;-2.80;99.90;;;;;;5098836;28;20044;-81
2021/03/03 02:44:48;;;;;;;12.38;6.78;;;-2.80;99.90;;;;;;5087576;28;20044;-83
2021/03/03 02:47:17;;;;;;;19.33;7.32;;;-2.90;99.90;;;;;;5087958;28;20053;-83
2021/03/03 02:49:44;;;;;;;22.40;6.85;;;-3.00;99.90;;;;;;5089455;28;20125;-82
2021/03/03 02:52:10;;;;;;;18.52;7.22;;;-3.00;99.90;;;;;;5098618;28;20029;-81
2021/03/03 02:54:36;;;;;;;11.35;7.00;;;-3.00;99.90;;;;;;5098650;28;20032;-82
2021/03/03 02:57:03;;;;;;;12.93;6.57;;;-3.00;99.90;;;;;;5072871;28;20545;-83
2021/03/03 02:59:32;;;;;;;17.35;7.65;;;-3.00;99.90;;;;;;5074073;28;20552;-82
2021/03/03 03:02:01;;;;;;;13.40;6.97;;;-3.00;99.90;;;;;;5073737;28;20049;-83
2021/03/03 03:04:30;;;;;;;20.35;8.07;;;-3.10;99.90;;;;;;5073546;28;20048;-83
2021/03/03 03:06:59;;;;;;;16.30;7.07;;;-3.10;99.90;;;;;;5073234;28;20481;-83
2021/03/03 03:09:26;;;;;;;14.35;6.70;;;-3.00;99.90;;;;;;5072825;28;20048;-83
2021/03/03 03:11:53;;;;;;;13.13;6.15;;;-3.00;99.90;;;;;;5072801;28;20163;-83
2021/03/03 03:14:27;;;;;;;15.20;6.90;;;-3.00;99.90;;;;;;5072943;28;20094;-82
2021/03/03 03:16:57;;;;;;;14.23;7.35;;;-3.10;99.90;;;;;;5072950;28;20098;-83
2021/03/03 03:19:40;;;;;;;15.25;7.50;;;-3.00;99.90;;;;;;5072885;28;20497;-83
2021/03/03 03:22:12;;;;;;;16.95;8.05;;;-3.10;99.90;;;;;;5073390;28;20077;-82
2021/03/03 03:24:39;;;;;;;18.83;7.63;;;-3.10;99.90;;;;;;5073203;28;20445;-83
2021/03/03 03:27:07;;;;;;;14.45;7.40;;;-3.20;99.90;;;;;;5073025;28;20052;-82
2021/03/03 03:29:37;;;;;;;12.88;7.18;;;-3.10;99.90;;;;;;5072403;28;20052;-82
2021/03/03 03:32:22;;;;;;;11.65;6.82;;;-3.10;99.90;;;;;;5072605;28;20052;-83
2021/03/03 03:34:49;;;;;;;17.52;8.52;;;-3.10;99.90;;;;;;5074168;28;20105;-82
2021/03/03 03:37:17;;;;;;;16.95;7.65;;;-3.10;99.90;;;;;;5072502;28;20464;-83
2021/03/03 03:39:43;;;;;;;15.13;7.03;;;-3.10;99.90;;;;;;5074141;28;20084;-83
2021/03/03 03:42:12;;;;;;;13.20;6.55;;;-3.10;99.90;;;;;;5072217;28;20559;-82
2021/03/03 03:44:39;;;;;;;14.82;6.65;;;-3.20;99.90;;;;;;5072521;28;20066;-82
2021/03/03 03:47:05;;;;;;;13.57;7.55;;;-3.30;99.90;;;;;;5072996;28;20127;-83
2021/03/03 03:49:32;;;;;;;11.98;6.75;;;-3.30;99.90;;;;;;5076040;28;20048;-83
2021/03/03 03:51:59;;;;;;;13.18;6.82;;;-3.30;99.90;;;;;;5076795;28;20052;-82
2021/03/03 03:54:25;;;;;;;16.80;8.10;;;-3.30;99.90;;;;;;5076959;28;20052;-83
2021/03/03 03:56:51;;;;;;;21.90;7.50;;;-3.30;99.90;;;;;;5077064;28;20049;-83
2021/03/03 03:59:17;;;;;;;17.55;7.05;;;-3.20;99.90;;;;;;5076435;28;20067;-83
2021/03/03 04:01:44;;;;;;;15.57;7.15;;;-3.10;99.90;;;;;;5077016;28;20052;-83
2021/03/03 04:04:10;;;;;;;18.40;7.93;;;-3.20;99.90;;;;;;5077055;28;20098;-83
2021/03/03 04:06:36;;;;;;;16.83;8.35;;;-3.20;99.90;;;;;;5079276;28;20048;-83
2021/03/03 04:09:04;;;;;;;13.90;7.25;;;-3.20;99.90;;;;;;5076728;28;20056;-82
2021/03/03 04:11:30;;;;;;;13.30;6.93;;;-3.30;99.90;;;;;;5079172;28;20101;-83
2021/03/03 04:13:56;;;;;;;14.93;7.97;;;-3.30;99.90;;;;;;5077051;28;20087;-82
2021/03/03 04:16:23;;;;;;;14.05;6.63;;;-3.30;99.90;;;;;;5077508;28;20072;-83
2021/03/03 04:18:49;;;;;;;13.85;7.10;;;-3.30;99.90;;;;;;5077685;28;20052;-83
2021/03/03 04:21:15;;;;;;;17.83;7.35;;;-3.30;99.90;;;;;;5077526;28;20143;-82
2021/03/03 04:23:42;;;;;;;16.20;7.22;;;-3.40;99.90;;;;;;5077166;28;20444;-83
2021/03/03 04:26:09;;;;;;;12.57;6.63;;;-3.30;99.90;;;;;;5078741;28;20083;-82
2021/03/03 04:28:35;;;;;;;13.27;6.72;;;-3.40;99.90;;;;;;5080029;28;20099;-83
2021/03/03 04:31:01;;;;;;;14.38;7.38;;;-3.40;99.90;;;;;;5079645;28;20055;-83
2021/03/03 04:33:29;;;;;;;14.90;6.82;;;-3.30;99.90;;;;;;5078806;28;20331;-83
2021/03/03 04:35:55;;;;;;;18.75;7.05;;;-3.40;99.90;;;;;;5080607;28;20559;-82
2021/03/03 04:38:22;;;;;;;13.32;6.90;;;-3.30;99.90;;;;;;5078478;28;20068;-83
2021/03/03 04:40:48;;;;;;;17.02;7.70;;;-3.40;99.90;;;;;;5078536;28;20055;-82
2021/03/03 04:43:14;;;;;;;14.80;7.75;;;-3.40;99.90;;;;;;5080071;28;20468;-83
2021/03/03 04:45:40;;;;;;;13.48;7.00;;;-3.40;99.90;;;;;;5079244;28;20048;-83
2021/03/03 04:48:07;;;;;;;18.92;7.60;;;-3.40;99.90;;;;;;5080413;28;20044;-83
2021/03/03 04:50:34;;;;;;;18.92;7.97;;;-3.50;99.90;;;;;;5079840;28;20048;-82
2021/03/03 04:53:01;;;;;;;15.07;7.18;;;-3.50;99.90;;;;;;5079687;28;20048;-83
2021/03/03 04:55:27;;;;;;;15.38;7.00;;;-3.50;99.90;;;;;;5080581;28;20057;-82
2021/03/03 04:57:54;;;;;;;16.92;7.00;;;-3.50;99.90;;;;;;5080027;28;20040;-82
2021/03/03 05:00:21;;;;;;;16.70;7.95;;;-3.60;99.90;;;;;;5080055;28;20547;-83
2021/03/03 05:02:48;;;;;;;13.38;7.07;;;-3.60;99.90;;;;;;5081381;28;20045;-83
2021/03/03 05:05:14;;;;;;;18.00;7.75;;;-3.60;99.90;;;;;;5080767;28;20502;-83
2021/03/03 05:07:41;;;;;;;15.48;7.57;;;-3.70;99.90;;;;;;5083149;28;20131;-83
2021/03/03 05:10:09;;;;;;;23.30;8.18;;;-3.70;99.90;;;;;;5081547;28;20536;-83
2021/03/03 05:12:35;;;;;;;18.52;7.85;;;-3.60;99.90;;;;;;5083879;28;20101;-82
2021/03/03 05:15:02;;;;;;;18.20;9.10;;;-3.50;99.90;;;;;;5084693;28;20075;-83
2021/03/03 05:17:28;;;;;;;21.40;11.18;;;-3.50;99.90;;;;;;5084147;28;20099;-82
2021/03/03 05:19:55;;;;;;;23.55;10.63;;;-3.40;99.90;;;;;;5082504;28;20045;-83
2021/03/03 05:22:21;;;;;;;23.75;9.88;;;-3.40;99.90;;;;;;5082575;28;20048;-83
2021/03/03 05:24:47;;;;;;;25.33;8.48;;;-3.30;99.90;;;;;;5083952;28;20421;-83
2021/03/03 05:27:14;;;;;;;14.48;8.50;;;-3.20;99.90;;;;;;5083575;28;20091;-82
2021/03/03 05:29:40;;;;;;;16.98;8.18;;;-3.20;99.90;;;;;;5084676;28;20045;-83
2021/03/03 05:32:06;;;;;;;22.83;11.35;;;-3.20;99.90;;;;;;5083271;28;20495;-83
2021/03/03 05:34:33;;;;;;;28.63;11.95;;;-3.20;99.90;;;;;;5083015;28;20428;-83
2021/03/03 05:36:59;;;;;;;17.08;8.77;;;-3.10;99.90;;;;;;5083340;28;20510;-83
2021/03/03 05:39:25;;;;;;;16.10;8.27;;;-3.10;99.90;;;;;;5083683;28;20045;-83
2021/03/03 05:41:51;;;;;;;19.50;8.15;;;-3.10;99.90;;;;;;5085359;28;20064;-83
2021/03/03 05:44:19;;;;;;;22.48;8.68;;;-3.10;99.90;;;;;;5083590;28;20041;-83
2021/03/03 05:46:48;;;;;;;17.27;8.10;;;-3.10;99.90;;;;;;5084615;28;20490;-83
2021/03/03 05:49:17;;;;;;;15.13;7.47;;;-3.10;99.90;;;;;;5084509;28;20082;-83
2021/03/03 05:51:43;;;;;;;13.15;7.72;;;-3.10;99.90;;;;;;5085010;28;20081;-83
2021/03/03 05:54:10;;;;;;;15.93;7.32;;;-3.20;99.90;;;;;;5084434;28;20064;-83
2021/03/03 05:56:37;;;;;;;28.65;8.98;;;-3.30;99.90;;;;;;5085108;28;20071;-83
2021/03/03 05:59:03;;;;;;;22.38;8.57;;;-3.20;99.90;;;;;;5085545;28;20040;-83
2021/03/03 06:01:31;;;;;;;19.90;8.93;;;-3.30;99.90;;;;;;5086637;28;20052;-83
2021/03/03 06:04:18;;;;;;;24.67;9.65;;;-3.30;99.90;;;;;;5088488;28;20115;-83
2021/03/03 06:06:45;;;;;;;25.58;10.63;;;-3.30;99.90;;;;;;5087203;28;20051;-83
2021/03/03 06:09:11;;;;;;;22.60;10.15;;;-3.30;99.90;;;;;;5088333;28;20053;-83
2021/03/03 06:11:37;;;;;;;21.23;9.80;;;-3.30;99.90;;;;;;5086808;28;20048;-83
2021/03/03 06:14:04;;;;;;;21.85;10.52;;;-3.30;99.90;;;;;;5095264;28;20040;-81
2021/03/03 06:16:30;;;;;;;19.15;10.07;;;-3.40;99.90;;;;;;5098979;28;20043;-82
2021/03/03 06:18:57;;;;;;;21.48;9.65;;;-3.30;99.90;;;;;;5089562;28;20075;-83
2021/03/03 06:21:25;;;;;;;24.58;10.65;;;-3.30;99.90;;;;;;5087447;28;20575;-83
2021/03/03 06:23:59;;;;;;;34.35;14.15;;;-3.30;99.90;;;;;;5088602;28;20055;-83
2021/03/03 06:26:25;;;;;;;26.20;11.07;;;-3.20;99.90;;;;;;5094286;28;20059;-81
2021/03/03 06:28:52;;;;;;;19.35;9.95;;;-3.10;99.90;;;;;;5098718;28;20032;-81
2021/03/03 06:31:32;;;;;;;20.10;9.43;;;-3.10;99.90;;;;;;5098245;28;20040;-82
2021/03/03 06:34:38;;;;;;;28.60;10.27;;;-3.00;99.90;;;;;;5077899;28;20050;-82
2021/03/03 06:37:05;;;;;;;27.25;9.80;;;-2.90;99.90;;;;;;5068908;28;20114;-82
2021/03/03 06:39:34;;;;;;;61.70;22.23;;;-2.80;99.90;;;;;;5079404;28;20040;-82
2021/03/03 06:42:02;;;;;;;58.88;21.75;;;-2.80;99.90;;;;;;5077488;28;20095;-82
2021/03/03 06:44:50;;;;;;;32.45;11.30;;;-2.70;99.90;;;;;;5077493;28;20498;-82
2021/03/03 06:47:17;;;;;;;28.73;12.52;;;-2.60;99.90;;;;;;5078001;28;20182;-83
2021/03/03 06:49:47;;;;;;;46.15;19.73;;;-2.60;99.90;;;;;;5078282;28;20044;-83
2021/03/03 06:52:14;;;;;;;52.75;18.02;;;-2.50;99.90;;;;;;5076922;28;20493;-82
2021/03/03 06:54:41;;;;;;;43.75;17.63;;;-2.40;99.90;;;;;;5070193;28;20387;-82
2021/03/03 06:57:12;;;;;;;52.08;17.90;;;-2.40;99.90;;;;;;5065018;28;20040;-83
2021/03/03 06:59:43;;;;;;;37.42;16.00;;;-2.30;99.90;;;;;;5077114;28;20059;-83
2021/03/03 07:02:15;;;;;;;45.53;20.25;;;-2.20;99.90;;;;;;5058556;28;20057;-83
2021/03/03 07:04:59;;;;;;;81.60;32.38;;;-2.10;99.90;;;;;;5058228;28;20240;-83
2021/03/03 07:07:26;;;;;;;63.40;25.23;;;-2.00;99.90;;;;;;5059130;28;20048;-83
2021/03/03 07:09:58;;;;;;;107.40;38.67;;;-1.90;99.90;;;;;;5063067;28;20502;-82
2021/03/03 07:12:30;;;;;;;81.57;31.87;;;-1.80;99.90;;;;;;5074159;28;20413;-83
2021/03/03 07:14:57;;;;;;;65.17;25.07;;;-1.60;99.90;;;;;;5077633;28;20075;-83
2021/03/03 07:17:24;;;;;;;65.78;29.33;;;-1.40;99.90;;;;;;5076725;28;20401;-83
2021/03/03 07:19:52;;;;;;;59.50;27.90;;;-1.40;99.90;;;;;;5078119;28;20045;-83
2021/03/03 07:22:29;;;;;;;59.88;27.60;;;-1.30;99.90;;;;;;5076884;28;20106;-83
2021/03/03 07:25:01;;;;;;;82.90;30.95;;;-1.10;99.90;;;;;;5082437;28;20051;-83
2021/03/03 07:27:30;;;;;;;82.63;33.83;;;-0.80;99.90;;;;;;5081326;28;20468;-83
2021/03/03 07:30:03;;;;;;;61.80;29.15;;;-0.60;99.90;;;;;;5080493;28;20494;-83
2021/03/03 07:32:30;;;;;;;61.15;30.10;;;-0.40;99.90;;;;;;5081680;28;20114;-83
2021/03/03 07:34:57;;;;;;;69.78;33.72;;;-0.10;99.90;;;;;;5080662;28;20052;-83
2021/03/03 07:37:26;;;;;;;83.80;36.80;;;0.00;99.90;;;;;;5081160;28;20493;-84
2021/03/03 07:40:25;;;;;;;95.00;40.67;;;0.30;99.90;;;;;;5082390;28;20045;-84
2021/03/03 07:43:06;;;;;;;113.82;45.38;;;0.50;99.90;;;;;;5079372;28;20044;-82
2021/03/03 07:45:39;;;;;;;156.68;45.10;;;0.90;99.90;;;;;;5078539;28;20049;-82
2021/03/03 07:48:11;;;;;;;1999.90;547.85;;;2.30;99.90;;;;;;5067784;28;20099;-82
2021/03/03 07:51:13;;;;;;;164.43;71.78;;;3.50;99.90;;;;;;5060814;28;20059;-82
2021/03/03 07:53:40;;;;;;;646.97;306.40;;;3.00;99.90;;;;;;5058263;28;20542;-83
2021/03/03 07:56:08;;;;;;;194.00;133.13;;;2.90;99.90;;;;;;5058496;28;20115;-82
2021/03/03 07:58:38;;;;;;;107.13;64.05;;;2.70;99.90;;;;;;5069747;28;20052;-82
2021/03/03 08:01:23;;;;;;;115.97;76.50;;;2.80;99.90;;;;;;5059696;28;20478;-82
2021/03/03 08:03:50;;;;;;;87.90;31.83;;;3.20;99.90;;;;;;5059215;28;20403;-82
2021/03/03 08:06:31;;;;;;;63.08;27.88;;;3.20;99.90;;;;;;5058164;28;20045;-82
2021/03/03 08:09:13;;;;;;;112.38;34.92;;;3.90;99.90;;;;;;5057417;28;20073;-82
2021/03/03 08:11:56;;;;;;;65.30;22.55;;;3.80;99.90;;;;;;5061963;28;20136;-82
2021/03/03 08:14:39;;;;;;;48.60;24.55;;;3.90;99.90;;;;;;5065600;28;20565;-83
2021/03/03 08:17:23;;;;;;;30.52;14.73;;;4.60;99.90;;;;;;5058073;28;20497;-84
2021/03/03 08:20:08;;;;;;;36.00;15.68;;;5.30;99.90;;;;;;5057663;28;20052;-82
2021/03/03 08:22:49;;;;;;;29.00;16.08;;;5.70;99.90;;;;;;5057922;28;20049;-82
2021/03/03 08:25:43;;;;;;;40.15;14.18;;;6.10;99.90;;;;;;5074364;28;20055;-80
2021/03/03 08:28:36;;;;;;;29.48;14.60;;;6.40;99.90;;;;;;5078289;28;20168;-80
2021/03/03 08:31:11;;;;;;;29.95;14.10;;;6.90;99.90;;;;;;5074907;28;20094;-80
2021/03/03 08:33:55;;;;;;;35.97;12.73;;;7.40;99.90;;;;;;5078169;28;20080;-80
2021/03/03 08:36:21;;;;;;;32.55;12.40;;;7.70;99.90;;;;;;5079353;28;20056;-80
2021/03/03 08:38:53;;;;;;;26.35;13.27;;;8.00;99.90;;;;;;5077959;28;20048;-80
2021/03/03 08:41:27;;;;;;;25.30;13.02;;;8.50;99.90;;;;;;5078111;28;20056;-80
2021/03/03 08:44:00;;;;;;;26.30;10.82;;;8.50;99.90;;;;;;5078105;28;20472;-79
2021/03/03 08:46:29;;;;;;;27.98;10.88;;;8.70;99.90;;;;;;5077876;28;20045;-80
2021/03/03 08:48:55;;;;;;;16.83;10.82;;;8.70;99.90;;;;;;5078532;28;20406;-80
2021/03/03 08:51:29;;;;;;;22.08;11.18;;;9.10;99.90;;;;;;5077562;28;20116;-80
2021/03/03 08:53:58;;;;;;;27.73;10.88;;;9.60;99.90;;;;;;5078873;28;20078;-82
2021/03/03 08:56:44;;;;;;;20.52;10.68;;;10.40;99.90;;;;;;5077574;28;20512;-81
2021/03/03 08:59:29;;;;;;;22.48;10.10;;;10.70;99.90;;;;;;5076983;28;20128;-80
2021/03/03 09:02:02;;;;;;;36.55;11.25;;;10.70;99.90;;;;;;5080714;28;20067;-80
2021/03/03 09:04:31;;;;;;;31.60;11.55;;;10.90;99.90;;;;;;5078163;28;20397;-80
2021/03/03 09:06:59;;;;;;;28.25;11.13;;;10.70;99.90;;;;;;5076178;28;20072;-80
2021/03/03 09:09:26;;;;;;;31.23;10.77;;;10.90;99.90;;;;;;5076268;28;20053;-80
2021/03/03 09:12:07;;;;;;;38.60;11.20;;;11.20;99.90;;;;;;5078125;28;20448;-80
2021/03/03 09:14:35;;;;;;;38.92;11.38;;;11.00;99.90;;;;;;5079655;28;20060;-81
2021/03/03 09:17:07;;;;;;;22.70;10.68;;;11.30;99.90;;;;;;5079380;28;20112;-82
2021/03/03 09:19:34;;;;;;;33.58;11.13;;;11.80;99.40;;;;;;5079467;28;20098;-81
2021/03/03 09:22:12;;;;;;;24.08;11.38;;;12.10;98.70;;;;;;5080779;28;20395;-81
2021/03/03 09:24:39;;;;;;;30.70;11.65;;;12.00;95.10;;;;;;5078808;28;20090;-81
2021/03/03 09:27:07;;;;;;;32.30;10.90;;;12.00;97.70;;;;;;5081002;28;20051;-81
2021/03/03 09:29:35;;;;;;;24.00;9.30;;;11.90;95.30;;;;;;5078672;28;20068;-81
2021/03/03 09:32:29;;;;;;;18.23;9.40;;;11.80;95.80;;;;;;5077985;28;20045;-81
2021/03/03 09:35:01;;;;;;;31.55;11.32;;;12.10;96.20;;;;;;5075335;28;20079;-83
2021/03/03 09:37:35;;;;;;;30.23;10.65;;;12.30;95.40;;;;;;5078550;28;20045;-82
2021/03/03 09:40:04;;;;;;;25.13;10.13;;;12.90;91.90;;;;;;5078148;28;20045;-82
2021/03/03 09:42:41;;;;;;;14.50;9.18;;;13.40;90.70;;;;;;5078791;28;20071;-81
2021/03/03 09:45:10;;;;;;;18.75;10.18;;;13.50;84.70;;;;;;5078909;28;20045;-81
2021/03/03 09:47:39;;;;;;;31.08;10.95;;;13.40;89.00;;;;;;5078942;28;20074;-82
2021/03/03 09:50:09;;;;;;;24.25;10.88;;;13.60;87.70;;;;;;5079307;28;20438;-81
2021/03/03 09:52:40;;;;;;;27.08;10.63;;;14.10;85.80;;;;;;5078869;28;20060;-81
2021/03/03 09:55:14;;;;;;;21.15;9.30;;;14.30;84.50;;;;;;5080241;28;20102;-82
2021/03/03 09:57:55;;;;;;;21.10;9.68;;;14.60;82.30;;;;;;5079239;28;20052;-82
2021/03/03 10:00:27;;;;;;;27.70;10.60;;;14.90;79.00;;;;;;5079350;28;20053;-82
2021/03/03 10:02:55;;;;;;;18.02;9.80;;;15.20;78.10;;;;;;5091741;28;20104;-83
2021/03/03 10:05:32;;;;;;;24.13;10.88;;;15.40;75.00;;;;;;5092295;28;20028;-82
2021/03/03 10:08:01;;;;;;;17.67;9.60;;;15.20;76.00;;;;;;5083326;28;20049;-83
2021/03/03 10:10:51;;;;;;;14.00;10.27;;;15.20;76.00;;;;;;5077945;28;20044;-83
2021/03/03 10:13:22;;;;;;;19.02;9.65;;;15.30;75.70;;;;;;5088503;28;20028;-83
2021/03/03 10:15:49;;;;;;;20.20;9.05;;;15.70;75.10;;;;;;5090361;28;20490;-82
2021/03/03 10:18:15;;;;;;;24.33;10.60;;;15.80;72.80;;;;;;5088969;28;20045;-83
2021/03/03 10:21:15;;;;;;;27.00;11.55;;;15.70;73.30;;;;;;5078851;28;20048;-82
2021/03/03 10:23:41;;;;;;;18.75;10.48;;;15.60;73.90;;;;;;5078868;28;20048;-83
2021/03/03 10:26:09;;;;;;;24.08;11.82;;;15.30;74.30;;;;;;5078591;28;20108;-83
2021/03/03 10:28:36;;;;;;;19.30;10.63;;;15.40;75.20;;;;;;5077399;28;20150;-82
2021/03/03 10:31:08;;;;;;;17.45;9.68;;;15.90;74.60;;;;;;5078625;28;20109;-83
2021/03/03 10:33:36;;;;;;;33.78;11.48;;;16.00;74.30;;;;;;5077566;28;20105;-83
2021/03/03 10:36:15;;;;;;;22.23;10.02;;;15.40;77.30;;;;;;5078235;28;20062;-82
2021/03/03 10:38:49;;;;;;;17.55;9.25;;;15.50;76.50;;;;;;5077419;28;20098;-83
2021/03/03 10:41:27;;;;;;;15.95;8.88;;;15.20;78.00;;;;;;5077334;28;20098;-83
2021/03/03 10:43:53;;;;;;;14.38;9.27;;;15.20;79.10;;;;;;5076721;28;20080;-83
2021/03/03 10:46:21;;;;;;;20.45;9.57;;;15.30;75.80;;;;;;5077490;28;20481;-82
2021/03/03 10:48:52;;;;;;;18.20;9.27;;;15.60;75.50;;;;;;5076886;28;20058;-83
2021/03/03 10:51:20;;;;;;;18.90;9.07;;;16.20;74.30;;;;;;5077773;28;20063;-82
2021/03/03 10:53:53;;;;;;;23.05;8.52;;;16.70;72.80;;;;;;5077111;28;20098;-82
2021/03/03 10:56:34;;;;;;;31.98;12.50;;;16.90;70.80;;;;;;5076967;28;20453;-82
2021/03/03 10:59:05;;;;;;;19.70;10.68;;;16.70;71.20;;;;;;5077072;28;20075;-83
2021/03/03 11:01:56;;;;;;;27.67;11.18;;;17.10;70.70;;;;;;5076974;28;20051;-82
2021/03/03 11:04:38;;;;;;;24.58;11.52;;;17.90;68.10;;;;;;5077089;28;20071;-82
2021/03/03 11:07:05;;;;;;;48.55;19.80;;;18.70;64.40;;;;;;5078508;28;20409;-82
2021/03/03 11:09:32;;;;;;;63.60;24.17;;;18.80;63.00;;;;;;5076086;28;20052;-82
2021/03/03 11:11:59;;;;;;;56.58;31.15;;;18.40;64.20;;;;;;5077398;28;20098;-82
2021/03/03 11:14:28;;;;;;;47.58;25.77;;;18.50;62.70;;;;;;5076103;28;20121;-82
2021/03/03 11:16:56;;;;;;;56.22;19.83;;;18.70;63.60;;;;;;5076815;28;20131;-83
2021/03/03 11:19:28;;;;;;;41.55;20.20;;;18.40;65.60;;;;;;5076373;28;20044;-82
2021/03/03 11:21:56;;;;;;;33.47;16.05;;;19.20;64.50;;;;;;5076369;28;20118;-82
2021/03/03 11:24:23;;;;;;;49.28;24.30;;;20.40;62.40;;;;;;5077677;28;20132;-82
2021/03/03 11:26:50;;;;;;;43.97;21.98;;;21.20;59.10;;;;;;5077828;28;20052;-83
2021/03/03 11:29:17;;;;;;;28.38;15.23;;;23.40;54.20;;;;;;5076601;28;20483;-82
2021/03/03 11:31:44;;;;;;;42.92;17.55;;;25.00;49.60;;;;;;5077027;28;20421;-83
2021/03/03 11:34:12;;;;;;;36.80;21.15;;;25.90;48.30;;;;;;5076060;28;20056;-82
2021/03/03 11:36:39;;;;;;;38.00;19.33;;;26.30;45.50;;;;;;5077010;28;20083;-83
2021/03/03 11:39:07;;;;;;;24.98;15.38;;;25.30;47.00;;;;;;5076395;28;20045;-83
2021/03/03 11:41:39;;;;;;;17.60;12.13;;;26.00;45.10;;;;;;5076270;28;20048;-82
2021/03/03 11:44:06;;;;;;;18.52;10.85;;;25.80;45.00;;;;;;5077060;28;20563;-82
2021/03/03 11:46:34;;;;;;;15.38;9.85;;;25.40;44.40;;;;;;5076589;28;20544;-82
2021/03/03 11:49:01;;;;;;;12.98;8.43;;;23.70;45.60;;;;;;5076599;28;20052;-82
2021/03/03 11:51:29;;;;;;;15.27;7.68;;;23.50;47.20;;;;;;5076431;28;20438;-83
2021/03/03 11:54:10;;;;;;;15.10;8.15;;;23.60;48.10;;;;;;5060048;28;20494;-83
2021/03/03 11:56:37;;;;;;;12.95;7.70;;;23.80;46.80;;;;;;5057557;28;20056;-83
2021/03/03 11:59:04;;;;;;;12.70;7.90;;;24.50;46.00;;;;;;5055712;28;20059;-82
2021/03/03 12:01:32;;;;;;;14.13;7.90;;;24.80;45.40;;;;;;5056219;28;20135;-82
2021/03/03 12:03:59;;;;;;;22.55;7.97;;;25.00;45.40;;;;;;5056876;28;20056;-82
2021/03/03 12:06:25;;;;;;;26.80;7.85;;;25.10;44.70;;;;;;5056615;28;20087;-82
2021/03/03 12:08:52;;;;;;;37.20;8.70;;;24.20;46.30;;;;;;5056157;28;20055;-82
2021/03/03 12:11:18;;;;;;;14.35;7.00;;;23.80;47.40;;;;;;5060129;28;20132;-82
2021/03/03 12:13:45;;;;;;;14.57;6.28;;;23.50;46.90;;;;;;5060141;28;20487;-82
2021/03/03 12:16:11;;;;;;;14.05;6.47;;;22.40;47.00;;;;;;5059583;28;20525;-82
2021/03/03 12:18:38;;;;;;;10.30;6.30;;;21.50;48.30;;;;;;5059613;28;20411;-82
2021/03/03 12:21:05;;;;;;;13.60;6.47;;;20.80;48.60;;;;;;5060644;28;20075;-82
2021/03/03 12:23:32;;;;;;;25.98;6.90;;;20.50;50.80;;;;;;5068596;28;20045;-82
2021/03/03 12:25:58;;;;;;;15.13;6.70;;;20.70;52.00;;;;;;5068050;28;20053;-83
2021/03/03 12:28:27;;;;;;;17.20;6.28;;;21.20;51.30;;;;;;5069532;28;20532;-82
2021/03/03 12:30:54;;;;;;;9.85;6.47;;;21.40;49.60;;;;;;5068750;28;20045;-83
2021/03/03 12:33:21;;;;;;;9.95;6.75;;;20.80;50.40;;;;;;5067771;28;20055;-82
2021/03/03 12:35:48;;;;;;;13.63;6.72;;;20.40;49.80;;;;;;5072403;28;20070;-83
2021/03/03 12:38:24;;;;;;;16.23;6.35;;;20.20;50.50;;;;;;5067713;28;20055;-82
2021/03/03 12:40:50;;;;;;;11.77;6.70;;;20.20;51.40;;;;;;5071092;28;20075;-82
2021/03/03 12:43:18;;;;;;;8.50;6.70;;;19.90;52.10;;;;;;5071746;28;20055;-83
2021/03/03 12:46:11;;;;;;;11.73;7.10;;;19.70;52.80;;;;;;5072082;28;20052;-82
2021/03/03 12:48:46;;;;;;;28.52;13.68;;;19.50;53.00;;;;;;5070702;28;20410;-83